26II weather

Huntington Memorial Hospital Heliport
Huntington, Indiana, United States

Public forecast

Using degrees Fahrenheit for public forecast. Weather courtesy of forecast.io.

METAR (pilot weather report)

Closest report is Huntington Municipal Airport, 2.0 nm (3.7 km) ESE. Retrieved 2019/04/20 04:35 UTC (0 seconds ago):

KHHG 200435Z AUTO 01012G22KT 10SM BKN018 BKN023 OVC042 05/02 A2967 RMK AO2 T00500017

TAF (pilot weather forecast)

Forecast is more than 12 hours old.

Closest forecast is Fort Wayne International Airport, 15.1 nm (28.0 km) ENE. Retrieved 2019/04/19 00:39 UTC (1 day ago):

TAF KFWA 192336Z 2000/2024 02018G28KT P6SM VCSH OVC018 FM200800 02019G29KT 6SM -SHRA BR OVC010 TEMPO 2012/2015 3SM SHRA BR OVC007 FM201600 36012KT P6SM -SHRA OVC010